Key West, FL

14:19 EDT le 23 septembre 2014 (GMT -0400)
Big Coppitt Key Gulfside | Change Station
CLOSE
Current Station
Stations météorologiques personnelles
Location: Key West, FL
Altitude: 31 ft
Stations météo à proximité

Alt. 31 ft 24.60 °N, 81.67 °W | Updated 6 minutes ago

Couvert
Couvert
83.1 ° F
Paraît 90 ° F
N
7.8
Vent Variable Vent de ESE

Aujourd'hui
Haut(e) -- | Bas -- ° F
--% Risque de précip.
Hier
Haut(e) -- | Bas -- ° F
Precip. -- pouce
7:15 AM 7:21 PM
Lune descendante, 0% visible
Pression 29.99 pouce
Visibilité 10.0 Miles terrestres
Nuages Peu 2000 ft
Nuages épars 6000 ft
Couvert 12000 ft
indice de chaleur 90 ° F
Point de rosée 75 ° F
Humidité 76%
Précipitations 1.45 pouce
Profondeur de la couche neigeuse Non disponible.
UV 4 sur 12
Pollen .50 sur 12
Qualité de l'air Non disponible.
Flu Activity Non disponible.
METAR KNQX 231753Z 09010KT 10SM FEW020 SCT060 OVC120 28/23 A2999 RMK AO2 SLP154 60022 T02780228 58010 $

More Conditions Fewer Conditions

Pression 29.99 pouce
Visibilité 10.0 Miles terrestres
Nuages Peu 2000 ft
Nuages épars 6000 ft
Couvert 12000 ft
indice de chaleur 90 ° F
Point de rosée 75 ° F
Humidité 76%
Précipitations 1.45 pouce
Profondeur de la couche neigeuse Non disponible.
UV 4 sur 12
Pollen .50 sur 12
Qualité de l'air Non disponible.
Flu Activity Non disponible.
METAR KNQX 231753Z 09010KT 10SM FEW020 SCT060 OVC120 28/23 A2999 RMK AO2 SLP154 60022 T02780228 58010 $

More Conditions Fewer Conditions

Nowcast | as of 1:41 PM EDT on September 23, 2014

Through 300 PM...an area of light to moderate rain with a few embedded showers will be found over the eastern Upper Keys and surrounding near and offshore waters. The stronger activity will remain away from land...and produce heavy downpours...wind gusts near 35 mph...and possibly a few lightning strikes. Island locations near North Key largo and Ocean Reef can expect the light to moderate rain to gradually diminish.

×

10-Day Weather Forecast

Almanac

Astronomie

Sep. 23, 2014 Lever Coucher
Temps réel 07:15 EDT 19:21 EDT
Crépuscule civil 06:52 EDT 19:44 EDT
Crépuscule nautique 06:26 EDT 20:10 EDT
Crépuscule astronomique 05:59 EDT 20:37 EDT
Lune 06:39 EDT 19:01 EDT
Durée de lumière visible 12h 51m
Longueur du jour
12h 06m
Tomorrow will be 1m 25s shorter.
Lune descendante, 0% of the Moon is Illuminated
Aujourd'hui
Lune descendante
Sep 24
Nouveau
Oct 1
Premier quartier
Oct 8
Pleine lune
Oct 15
Dernier quartier

Extrêmes aujourd'hui

State Highs State Lows

Community

WunderPhotos

Upload Photos

1,755,765 Photos téléchargées !

Nearby

Épaisseur de neige

Station Depth Altitude
Pas de nouvelles chutes de neige

Activité sismique

Ville Distance Mag. Time & Date
No recent earthquake activity has been reported nearby.
Minimum magnitude displayed is 2.5.

Températures des eaux côtières

Lieu Température
Key West, FL 84.9 ° F
Vaca Key, FL 84.0 ° F

Stations météo à proximité